createdAt,value
2023-02-16T00:00:31.633Z,1.93
2023-02-16T00:04:17.622Z,1.95
2023-02-16T00:07:40.521Z,1.97
2023-02-16T00:11:21.685Z,1.95
2023-02-16T00:14:44.064Z,1.93
2023-02-16T00:18:14.823Z,1.90
2023-02-16T00:21:37.813Z,1.86
2023-02-16T00:25:02.096Z,1.81
2023-02-16T00:28:24.881Z,1.74
2023-02-16T00:31:47.840Z,1.67
2023-02-16T00:35:15.324Z,1.63
2023-02-16T00:38:38.784Z,1.58
2023-02-16T00:42:03.708Z,1.54
2023-02-16T00:45:26.093Z,1.48
2023-02-16T00:48:48.772Z,1.42
2023-02-16T00:52:23.414Z,1.38
2023-02-16T00:55:46.617Z,1.35
2023-02-16T00:59:13.582Z,1.32
2023-02-16T01:02:36.176Z,1.29
2023-02-16T01:06:12.904Z,1.25
2023-02-16T01:09:53.347Z,1.23
2023-02-16T01:13:17.198Z,1.19
2023-02-16T01:16:41.434Z,1.16
2023-02-16T01:20:04.186Z,1.17
2023-02-16T01:23:29.587Z,1.19
2023-02-16T01:26:52.312Z,1.21
2023-02-16T01:30:16.868Z,1.23
2023-02-16T01:33:39.999Z,1.23
2023-02-16T01:37:05.379Z,1.27
2023-02-16T01:40:36.450Z,1.33
2023-02-16T01:43:59.805Z,1.38
2023-02-16T01:47:30.843Z,1.43
2023-02-16T01:50:56.661Z,1.46
2023-02-16T01:54:24.601Z,1.45
2023-02-16T01:57:49.649Z,1.46
2023-02-16T02:01:32.465Z,1.49
2023-02-16T02:05:15.482Z,1.45
2023-02-16T02:08:42.609Z,1.35
2023-02-16T02:12:09.359Z,1.26
2023-02-16T02:15:34.641Z,1.21
2023-02-16T02:18:57.094Z,1.16
2023-02-16T02:22:57.633Z,1.10
2023-02-16T02:26:43.357Z,1.04
2023-02-16T02:30:13.075Z,0.96
2023-02-16T02:33:42.785Z,0.91
2023-02-16T02:37:11.343Z,0.87
2023-02-16T02:40:41.937Z,0.82
2023-02-16T02:44:06.810Z,0.76
2023-02-16T02:47:37.775Z,0.73
2023-02-16T02:51:19.475Z,0.73
2023-02-16T02:55:03.112Z,0.72
2023-02-16T02:58:45.095Z,0.69
2023-02-16T03:02:08.360Z,0.67
2023-02-16T03:05:32.172Z,0.72
2023-02-16T03:08:56.060Z,0.75
2023-02-16T03:12:37.660Z,0.78
2023-02-16T03:16:02.754Z,0.80
2023-02-16T03:19:43.611Z,0.82
2023-02-16T03:23:24.712Z,0.86
2023-02-16T03:27:09.158Z,0.92
2023-02-16T03:30:32.956Z,1.00
2023-02-16T03:33:55.848Z,1.02
2023-02-16T03:37:18.704Z,1.07
2023-02-16T03:40:42.514Z,1.10
2023-02-16T03:44:05.305Z,1.10
2023-02-16T03:47:27.305Z,1.12
2023-02-16T03:50:49.590Z,1.08
2023-02-16T03:54:12.030Z,1.03
2023-02-16T03:57:34.979Z,0.97
2023-02-16T04:00:58.889Z,0.94
2023-02-16T04:04:21.699Z,0.90
2023-02-16T04:07:44.516Z,0.85
2023-02-16T04:11:27.069Z,0.78
2023-02-16T04:14:49.629Z,0.72
2023-02-16T04:18:12.215Z,0.66
2023-02-16T04:21:34.939Z,0.60
2023-02-16T04:24:57.904Z,0.53
2023-02-16T04:28:20.381Z,0.47
2023-02-16T04:31:42.853Z,0.42
2023-02-16T04:35:06.457Z,0.38
2023-02-16T04:38:28.449Z,0.36
2023-02-16T04:41:50.670Z,0.34
2023-02-16T04:45:13.785Z,0.34
2023-02-16T04:48:36.299Z,0.36
2023-02-16T04:52:00.530Z,0.40
2023-02-16T04:55:23.131Z,0.45
2023-02-16T04:58:45.759Z,0.54
2023-02-16T05:02:08.892Z,0.64
2023-02-16T05:05:31.739Z,0.71
2023-02-16T05:08:54.613Z,0.77
2023-02-16T05:12:35.147Z,0.84
2023-02-16T05:15:57.869Z,0.89
2023-02-16T05:19:20.086Z,0.88
2023-02-16T05:22:44.051Z,0.91
2023-02-16T05:26:06.577Z,0.93
2023-02-16T05:29:30.353Z,0.93
2023-02-16T05:32:52.556Z,0.92
2023-02-16T05:36:15.273Z,0.88
2023-02-16T05:39:37.334Z,0.85
2023-02-16T05:42:59.546Z,0.81
2023-02-16T05:46:22.899Z,0.75
2023-02-16T05:49:45.400Z,0.63
2023-02-16T05:53:08.019Z,0.53
2023-02-16T05:56:30.619Z,0.44
2023-02-16T05:59:52.922Z,0.34
2023-02-16T06:03:14.934Z,0.26
2023-02-16T06:06:38.553Z,0.23
2023-02-16T06:10:01.610Z,0.20
2023-02-16T06:13:24.012Z,0.19
2023-02-16T06:16:48.762Z,0.17
2023-02-16T06:20:11.909Z,0.14
2023-02-16T06:23:34.041Z,0.12
2023-02-16T06:26:56.291Z,0.13
2023-02-16T06:30:19.648Z,0.15
2023-02-16T06:33:43.187Z,0.20
2023-02-16T06:37:05.777Z,0.23
2023-02-16T06:40:28.381Z,0.31
2023-02-16T06:43:50.434Z,0.39
2023-02-16T06:47:12.372Z,0.48
2023-02-16T06:50:34.418Z,0.55
2023-02-16T06:54:00.625Z,0.65
2023-02-16T06:57:23.018Z,0.75
2023-02-16T07:00:44.964Z,0.85
2023-02-16T07:04:07.121Z,0.96
2023-02-16T07:07:29.209Z,1.06
2023-02-16T07:10:53.194Z,1.14
2023-02-16T07:14:16.285Z,1.17
2023-02-16T07:17:38.642Z,1.14
2023-02-16T07:21:02.005Z,1.06
2023-02-16T07:24:24.605Z,0.99
2023-02-16T07:27:46.763Z,0.96
2023-02-16T07:31:10.439Z,0.90
2023-02-16T07:34:32.954Z,0.86
2023-02-16T07:37:55.508Z,0.82
2023-02-16T07:41:17.486Z,0.79
2023-02-16T07:44:39.745Z,0.81
2023-02-16T07:48:02.208Z,0.82
2023-02-16T07:51:25.518Z,0.85
2023-02-16T07:54:47.754Z,0.89
2023-02-16T07:58:09.960Z,0.90
2023-02-16T08:01:32.145Z,0.94
2023-02-16T08:04:54.694Z,0.99
2023-02-16T08:08:19.518Z,1.05
2023-02-16T08:11:42.881Z,1.14
2023-02-16T08:15:05.374Z,1.21
2023-02-16T08:18:28.403Z,1.31
2023-02-16T08:21:50.916Z,1.43
2023-02-16T08:25:15.445Z,1.54
2023-02-16T08:28:38.142Z,1.60
2023-02-16T08:32:01.349Z,1.71
2023-02-16T08:35:23.724Z,1.77
2023-02-16T08:38:50.594Z,1.81
2023-02-16T08:42:13.424Z,1.86
2023-02-16T08:45:35.936Z,1.98
2023-02-16T08:48:59.737Z,2.04
2023-02-16T08:52:21.895Z,2.07
2023-02-16T08:55:51.217Z,2.13
2023-02-16T08:59:14.566Z,2.21
2023-02-16T09:02:37.580Z,2.26
2023-02-16T09:06:02.731Z,2.29
2023-02-16T09:09:26.581Z,2.30
2023-02-16T09:12:49.549Z,2.28
2023-02-16T09:16:15.371Z,2.29
2023-02-16T09:19:38.097Z,2.28
2023-02-16T09:23:00.344Z,2.27
2023-02-16T09:26:24.061Z,2.29
2023-02-16T09:29:49.401Z,2.35
2023-02-16T09:33:12.513Z,2.43
2023-02-16T09:36:36.537Z,2.56
2023-02-16T09:39:58.579Z,2.61
2023-02-16T09:43:28.704Z,2.67
2023-02-16T09:46:52.143Z,2.79
2023-02-16T09:50:17.081Z,2.88
2023-02-16T09:53:40.961Z,2.97
2023-02-16T09:57:08.186Z,3.14
2023-02-16T10:00:39.803Z,3.37
2023-02-16T10:04:11.653Z,3.55
2023-02-16T10:07:40.660Z,3.70
2023-02-16T10:11:27.477Z,3.81
2023-02-16T10:14:51.621Z,3.89
2023-02-16T10:18:21.676Z,3.97
2023-02-16T10:21:46.316Z,3.99
2023-02-16T10:25:12.834Z,4.06
2023-02-16T10:28:40.909Z,4.16
2023-02-16T10:32:11.524Z,4.24
2023-02-16T10:35:42.383Z,4.32
2023-02-16T10:39:08.002Z,4.36
2023-02-16T10:42:34.393Z,4.45
2023-02-16T10:45:59.142Z,4.54
2023-02-16T10:49:21.630Z,4.60
2023-02-16T10:52:44.181Z,4.68
2023-02-16T10:56:21.499Z,4.81
2023-02-16T10:59:44.823Z,4.98
2023-02-16T11:03:10.993Z,5.10
2023-02-16T11:06:36.443Z,5.25
2023-02-16T11:10:01.162Z,5.43
2023-02-16T11:13:26.947Z,5.60
2023-02-16T11:16:49.549Z,5.77
2023-02-16T11:20:26.607Z,5.88
2023-02-16T11:23:58.098Z,6.00
2023-02-16T11:27:21.802Z,6.13
2023-02-16T11:30:44.779Z,6.26
2023-02-16T11:34:08.516Z,6.41
2023-02-16T11:37:32.926Z,6.55
2023-02-16T11:40:55.929Z,6.66
2023-02-16T11:44:24.520Z,6.82
2023-02-16T11:47:52.419Z,7.01
2023-02-16T11:51:28.515Z,7.20
2023-02-16T11:54:52.386Z,7.36
2023-02-16T11:58:16.881Z,7.44
2023-02-16T12:01:44.452Z,7.58
2023-02-16T12:05:21.322Z,7.77
2023-02-16T12:08:58.634Z,7.94
2023-02-16T12:12:31.669Z,8.12
2023-02-16T12:15:57.310Z,8.33
2023-02-16T12:19:24.678Z,8.46
2023-02-16T12:22:49.588Z,8.57
2023-02-16T12:26:31.083Z,8.64
2023-02-16T12:29:59.440Z,8.80
2023-02-16T12:33:33.388Z,8.97
2023-02-16T12:37:01.173Z,8.98
2023-02-16T12:40:30.638Z,9.01
2023-02-16T12:43:54.513Z,9.09
2023-02-16T12:47:22.549Z,9.24
2023-02-16T12:50:46.832Z,9.39
2023-02-16T12:54:13.839Z,9.54
2023-02-16T12:57:36.593Z,9.68
2023-02-16T13:01:01.944Z,9.84
2023-02-16T13:04:31.173Z,9.97
2023-02-16T13:07:56.335Z,9.92
2023-02-16T13:11:20.663Z,9.70
2023-02-16T13:14:44.123Z,9.48
2023-02-16T13:18:11.882Z,9.45
2023-02-16T13:21:51.803Z,9.51
2023-02-16T13:25:28.726Z,9.48
2023-02-16T13:29:03.566Z,9.50
2023-02-16T13:32:44.460Z,9.65
2023-02-16T13:36:15.487Z,9.77
2023-02-16T13:39:42.513Z,9.84
2023-02-16T13:43:12.833Z,9.78
2023-02-16T13:46:38.982Z,9.76
2023-02-16T13:50:03.027Z,9.75
2023-02-16T13:53:27.639Z,9.72
2023-02-16T13:56:51.142Z,9.73
2023-02-16T14:00:29.160Z,9.77
2023-02-16T14:03:51.774Z,9.86
2023-02-16T14:07:32.538Z,9.95
2023-02-16T14:11:09.210Z,9.99
2023-02-16T14:14:33.596Z,9.96
2023-02-16T14:17:56.094Z,9.95
2023-02-16T14:21:32.097Z,9.91
2023-02-16T14:24:56.246Z,9.83
2023-02-16T14:28:51.515Z,9.75
2023-02-16T14:32:23.884Z,9.67
2023-02-16T14:35:48.287Z,9.55
2023-02-16T14:39:12.404Z,9.43
2023-02-16T14:42:35.941Z,9.30
2023-02-16T14:46:16.646Z,9.23
2023-02-16T14:49:54.707Z,9.12
2023-02-16T14:53:35.275Z,9.05
2023-02-16T14:57:02.227Z,8.99
2023-02-16T15:00:29.140Z,8.94
2023-02-16T15:03:54.103Z,8.91
2023-02-16T15:07:17.912Z,8.88
2023-02-16T15:10:41.353Z,8.88
2023-02-16T15:14:08.558Z,8.89
2023-02-16T15:17:34.001Z,8.89
2023-02-16T15:20:57.892Z,8.87
2023-02-16T15:24:22.470Z,8.81
2023-02-16T15:27:53.370Z,8.73
2023-02-16T15:31:18.288Z,8.63
2023-02-16T15:34:41.076Z,8.52
2023-02-16T15:38:20.305Z,8.43
2023-02-16T15:41:45.238Z,8.32
2023-02-16T15:45:24.913Z,8.23
2023-02-16T15:48:49.671Z,8.10
2023-02-16T15:52:14.832Z,7.99
2023-02-16T15:55:45.025Z,7.86
2023-02-16T15:59:34.200Z,7.75
2023-02-16T16:02:58.449Z,7.64
2023-02-16T16:06:21.046Z,7.53
2023-02-16T16:09:45.372Z,7.43
2023-02-16T16:13:12.077Z,7.33
2023-02-16T16:16:35.865Z,7.23
2023-02-16T16:20:17.204Z,7.14
2023-02-16T16:23:42.241Z,7.05
2023-02-16T16:27:07.917Z,6.97
2023-02-16T16:30:31.717Z,6.88
2023-02-16T16:33:57.354Z,6.77
2023-02-16T16:37:24.598Z,6.67
2023-02-16T16:40:50.404Z,6.57
2023-02-16T16:44:29.044Z,6.50
2023-02-16T16:47:52.536Z,6.45
2023-02-16T16:51:15.740Z,6.42
2023-02-16T16:54:40.180Z,6.41
2023-02-16T16:58:05.904Z,6.41
2023-02-16T17:01:29.598Z,6.41
2023-02-16T17:04:52.266Z,6.41
2023-02-16T17:08:14.360Z,6.42
2023-02-16T17:11:37.917Z,6.42
2023-02-16T17:15:01.863Z,6.43
2023-02-16T17:18:24.441Z,6.43
2023-02-16T17:23:53.835Z,6.46
2023-02-16T17:27:23.511Z,6.41
2023-02-16T17:30:53.438Z,6.33
2023-02-16T17:34:22.127Z,6.24
2023-02-16T17:37:49.223Z,6.13
2023-02-16T17:41:23.301Z,6.05
2023-02-16T17:44:51.088Z,5.92
2023-02-16T17:48:21.217Z,5.82
2023-02-16T17:51:48.334Z,5.73
2023-02-16T17:55:17.800Z,5.66
2023-02-16T17:58:45.304Z,5.61
2023-02-16T18:02:14.689Z,5.57
2023-02-16T18:05:42.669Z,5.56
2023-02-16T18:09:11.584Z,5.55
2023-02-16T18:12:39.594Z,5.54
2023-02-16T18:16:08.768Z,5.55
2023-02-16T18:19:36.208Z,5.57
2023-02-16T18:23:03.133Z,5.58
2023-02-16T18:26:33.535Z,5.59
2023-02-16T18:30:00.778Z,5.59
2023-02-16T18:33:29.146Z,5.57
2023-02-16T18:36:56.273Z,5.52
2023-02-16T18:40:23.861Z,5.48
2023-02-16T18:43:51.726Z,5.43
2023-02-16T18:47:20.302Z,5.36
2023-02-16T18:50:48.879Z,5.31
2023-02-16T18:54:17.120Z,5.28
2023-02-16T18:57:44.479Z,5.24
2023-02-16T19:01:23.678Z,5.23
2023-02-16T19:04:50.461Z,5.23
2023-02-16T19:08:22.490Z,5.23
2023-02-16T19:11:50.859Z,5.25
2023-02-16T19:15:21.193Z,5.28
2023-02-16T19:18:48.486Z,5.33
2023-02-16T19:22:19.260Z,5.37
2023-02-16T19:25:47.621Z,5.40
2023-02-16T19:29:15.962Z,5.45
2023-02-16T19:32:49.776Z,5.45
2023-02-16T19:36:27.097Z,5.50
2023-02-16T19:39:57.427Z,5.47
2023-02-16T19:43:25.085Z,5.46
2023-02-16T19:46:54.364Z,5.45
2023-02-16T19:50:22.099Z,5.42
2023-02-16T19:53:51.723Z,5.37
2023-02-16T19:57:22.571Z,5.33
2023-02-16T20:00:50.426Z,5.28
2023-02-16T20:04:20.571Z,5.31
2023-02-16T20:07:47.816Z,5.34
2023-02-16T20:11:19.331Z,5.38
2023-02-16T20:14:50.081Z,5.44
2023-02-16T20:18:19.907Z,5.49
2023-02-16T20:22:00.429Z,5.55
2023-02-16T20:25:29.781Z,5.62
2023-02-16T20:28:59.718Z,5.69
2023-02-16T20:32:31.230Z,5.74
2023-02-16T20:35:58.533Z,5.82
2023-02-16T20:39:27.755Z,5.90
2023-02-16T20:42:54.560Z,5.96
2023-02-16T20:46:26.581Z,5.99
2023-02-16T20:50:00.466Z,5.99
2023-02-16T20:53:30.242Z,5.95
2023-02-16T20:56:59.928Z,5.93
2023-02-16T21:00:30.260Z,5.90
2023-02-16T21:03:59.584Z,5.91
2023-02-16T21:07:26.636Z,5.89
2023-02-16T21:10:54.457Z,5.88
2023-02-16T21:14:21.528Z,5.88
2023-02-16T21:17:49.491Z,5.90
2023-02-16T21:21:17.481Z,5.92
2023-02-16T21:24:44.528Z,5.96
2023-02-16T21:28:11.731Z,6.01
2023-02-16T21:31:39.576Z,6.08
2023-02-16T21:35:07.866Z,6.15
2023-02-16T21:38:35.824Z,6.21
2023-02-16T21:42:03.705Z,6.24
2023-02-16T21:45:32.845Z,6.28
2023-02-16T21:49:01.112Z,6.29
2023-02-16T21:52:29.313Z,6.29
2023-02-16T21:56:13.428Z,6.29
2023-02-16T21:59:42.034Z,6.29
2023-02-16T22:03:14.344Z,6.26
2023-02-16T22:06:46.398Z,6.25
2023-02-16T22:10:13.758Z,6.19
2023-02-16T22:13:48.341Z,6.16
2023-02-16T22:17:16.662Z,6.14
2023-02-16T22:20:44.310Z,6.14
2023-02-16T22:24:15.114Z,6.14
2023-02-16T22:27:42.786Z,6.16
2023-02-16T22:31:10.732Z,6.21
2023-02-16T22:34:37.862Z,6.27
2023-02-16T22:38:05.428Z,6.32
2023-02-16T22:41:32.414Z,6.37
2023-02-16T22:45:01.077Z,6.46
2023-02-16T22:48:28.298Z,6.53
2023-02-16T22:51:55.655Z,6.56
2023-02-16T22:55:22.675Z,6.59
2023-02-16T22:58:49.891Z,6.60
2023-02-16T23:02:16.673Z,6.59
2023-02-16T23:05:43.601Z,6.52
2023-02-16T23:09:16.055Z,6.48
2023-02-16T23:12:42.674Z,6.42
2023-02-16T23:16:13.475Z,6.36
2023-02-16T23:19:40.645Z,6.30
2023-02-16T23:23:07.703Z,6.24
2023-02-16T23:26:35.461Z,6.22
2023-02-16T23:30:02.652Z,6.20
2023-02-16T23:33:30.459Z,6.19
2023-02-16T23:37:00.429Z,6.19
2023-02-16T23:40:27.831Z,6.17
2023-02-16T23:43:55.753Z,6.18
2023-02-16T23:47:22.890Z,6.17
2023-02-16T23:50:54.458Z,6.19
2023-02-16T23:54:21.193Z,6.23
2023-02-16T23:57:48.807Z,6.26
